sensor_id;sensor_type;location;lat;lon;timestamp;temperature;humidity
43414;DHT22;73638;49.676;8.606;2024-02-14T00:02:44;8.233;65.0843
43414;DHT22;73638;49.676;8.606;2024-02-14T00:07:50;8.3665;65.0721
43414;DHT22;73638;49.676;8.606;2024-02-14T00:12:57;8.2036;64.2985
43414;DHT22;73638;49.676;8.606;2024-02-14T00:18:05;7.9873;64.6876
43414;DHT22;73638;49.676;8.606;2024-02-14T00:23:11;7.9393;64.651
43414;DHT22;73638;49.676;8.606;2024-02-14T00:28:17;7.6589;65.2399
43414;DHT22;73638;49.676;8.606;2024-02-14T00:33:24;7.974;66.4317
43414;DHT22;73638;49.676;8.606;2024-02-14T00:38:31;8.0568;66.4683
43414;DHT22;73638;49.676;8.606;2024-02-14T00:43:37;8.0861;66.6529
43414;DHT22;73638;49.676;8.606;2024-02-14T00:48:44;8.4279;66.2272
43414;DHT22;73638;49.676;8.606;2024-02-14T00:53:51;8.4707;66.0914
43414;DHT22;73638;49.676;8.606;2024-02-14T00:58:57;8.5321;65.9937
43414;DHT22;73638;49.676;8.606;2024-02-14T01:04:04;8.5481;65.6001
43414;DHT22;73638;49.676;8.606;2024-02-14T01:09:11;8.5962;65.4276
43414;DHT22;73638;49.676;8.606;2024-02-14T01:14:17;8.5481;65.8701
43414;DHT22;73638;49.676;8.606;2024-02-14T01:19:24;8.7297;65.5634
43414;DHT22;73638;49.676;8.606;2024-02-14T01:24:31;8.6736;64.802
43414;DHT22;73638;49.676;8.606;2024-02-14T01:29:38;8.3452;64.8875
43414;DHT22;73638;49.676;8.606;2024-02-14T01:34:45;8.3719;65.0355
43414;DHT22;73638;49.676;8.606;2024-02-14T01:39:51;8.3452;66.006
43414;DHT22;73638;49.676;8.606;2024-02-14T01:44:58;8.476;66.6209
43414;DHT22;73638;49.676;8.606;2024-02-14T01:50:06;8.4974;66.5827
43414;DHT22;73638;49.676;8.606;2024-02-14T01:55:12;8.5134;66.5339
43414;DHT22;73638;49.676;8.606;2024-02-14T02:00:18;8.7003;66.4485
43414;DHT22;73638;49.676;8.606;2024-02-14T02:05:25;8.8392;66.5095
43414;DHT22;73638;49.676;8.606;2024-02-14T02:10:32;8.9673;66.276
43414;DHT22;73638;49.676;8.606;2024-02-14T02:15:38;9.1329;66.1158
43414;DHT22;73638;49.676;8.606;2024-02-14T02:20:45;9.1196;66.1036
43414;DHT22;73638;49.676;8.606;2024-02-14T02:25:51;8.994;66.1906
43414;DHT22;73638;49.676;8.606;2024-02-14T02:30:58;9.0768;66.276
43414;DHT22;73638;49.676;8.606;2024-02-14T02:36:05;8.994;65.9068
43414;DHT22;73638;49.676;8.606;2024-02-14T02:41:11;8.8552;65.5879
43414;DHT22;73638;49.676;8.606;2024-02-14T02:46:18;8.8338;66.2028
43414;DHT22;73638;49.676;8.606;2024-02-14T02:51:25;9.0021;66.9154
43414;DHT22;73638;49.676;8.606;2024-02-14T02:56:32;9.2317;66.5827
43414;DHT22;73638;49.676;8.606;2024-02-14T03:01:39;9.3358;66.5583
43414;DHT22;73638;49.676;8.606;2024-02-14T03:06:46;9.456;66.3615
43414;DHT22;73638;49.676;8.606;2024-02-14T03:11:52;9.5121;66.1158
43414;DHT22;73638;49.676;8.606;2024-02-14T03:16:59;9.5602;66.0914
43414;DHT22;73638;49.676;8.606;2024-02-14T03:22:05;9.5254;65.8091
43414;DHT22;73638;49.676;8.606;2024-02-14T03:27:12;9.6937;65.4948
43414;DHT22;73638;49.676;8.606;2024-02-14T03:32:18;9.7337;65.1881
43414;DHT22;73638;49.676;8.606;2024-02-14T03:37:25;9.7471;65.0156
43414;DHT22;73638;49.676;8.606;2024-02-14T03:42:32;9.8032;64.77
43414;DHT22;73638;49.676;8.606;2024-02-14T03:47:39;9.7284;64.5731
43414;DHT22;73638;49.676;8.606;2024-02-14T03:52:45;9.7765;64.2054
43414;DHT22;73638;49.676;8.606;2024-02-14T03:57:52;9.5949;64.3641
43414;DHT22;73638;49.676;8.606;2024-02-14T04:02:59;9.4266;64.8753
43414;DHT22;73638;49.676;8.606;2024-02-14T04:08:05;9.5174;64.8142
43414;DHT22;73638;49.676;8.606;2024-02-14T04:13:12;9.2584;64.6662
43414;DHT22;73638;49.676;8.606;2024-02-14T04:18:19;9.3011;64.802
43414;DHT22;73638;49.676;8.606;2024-02-14T04:23:26;9.2103;64.7898
43414;DHT22;73638;49.676;8.606;2024-02-14T04:28:32;9.2023;64.9241
43414;DHT22;73638;49.676;8.606;2024-02-14T04:33:39;9.3358;65.9068
43414;DHT22;73638;49.676;8.606;2024-02-14T04:38:46;9.456;66.1906
43414;DHT22;73638;49.676;8.606;2024-02-14T04:43:53;9.5655;66.1418
43414;DHT22;73638;49.676;8.606;2024-02-14T04:49:00;9.6563;65.4459
43414;DHT22;73638;49.676;8.606;2024-02-14T04:54:06;9.707;65.2613
43414;DHT22;73638;49.676;8.606;2024-02-14T04:59:13;9.7845;65.2247
43414;DHT22;73638;49.676;8.606;2024-02-14T05:04:20;9.9367;64.9302
43414;DHT22;73638;49.676;8.606;2024-02-14T05:09:26;9.91;65.0645
43414;DHT22;73638;49.676;8.606;2024-02-14T05:14:37;9.8672;64.831
43414;DHT22;73638;49.676;8.606;2024-02-14T05:19:41;9.8672;64.7578
43414;DHT22;73638;49.676;8.606;2024-02-14T05:24:47;9.902;64.7578
43414;DHT22;73638;49.676;8.606;2024-02-14T05:29:54;9.8806;64.9424
43414;DHT22;73638;49.676;8.606;2024-02-14T05:35:01;9.958;64.7944
43414;DHT22;73638;49.676;8.606;2024-02-14T05:40:08;10.0008;64.4511
43414;DHT22;73638;49.676;8.606;2024-02-14T05:45:14;9.9847;64.4755
43414;DHT22;73638;49.676;8.606;2024-02-14T05:50:21;9.9714;64.5609
43414;DHT22;73638;49.676;8.606;2024-02-14T05:55:27;9.9847;63.946
43414;DHT22;73638;49.676;8.606;2024-02-14T06:00:34;9.7471;64.0696
43414;DHT22;73638;49.676;8.606;2024-02-14T06:05:41;9.6082;64.3275
43414;DHT22;73638;49.676;8.606;2024-02-14T06:10:47;9.6376;65.8015
43414;DHT22;73638;49.676;8.606;2024-02-14T06:15:54;9.6376;65.4948
43414;DHT22;73638;49.676;8.606;2024-02-14T06:21:01;9.8192;65.6306
43414;DHT22;73638;49.676;8.606;2024-02-14T06:26:08;9.9714;65.4093
43414;DHT22;73638;49.676;8.606;2024-02-14T06:31:16;9.91;65.2369
43414;DHT22;73638;49.676;8.606;2024-02-14T06:36:21;9.9928;65.2003
43414;DHT22;73638;49.676;8.606;2024-02-14T06:41:28;9.9847;65.0767
43414;DHT22;73638;49.676;8.606;2024-02-14T06:46:34;10.1049;65.0767
43414;DHT22;73638;49.676;8.606;2024-02-14T06:51:42;9.9447;64.5243
43414;DHT22;73638;49.676;8.606;2024-02-14T06:56:48;9.8032;64.918
43414;DHT22;73638;49.676;8.606;2024-02-14T07:01:56;9.7284;65.1881
43414;DHT22;73638;49.676;8.606;2024-02-14T07:07:01;9.7337;65.1759
43414;DHT22;73638;49.676;8.606;2024-02-14T07:12:08;9.7551;64.7578
43414;DHT22;73638;49.676;8.606;2024-02-14T07:17:14;9.6029;64.8676
43414;DHT22;73638;49.676;8.606;2024-02-14T07:22:21;9.6723;65.3345
43414;DHT22;73638;49.676;8.606;2024-02-14T07:27:28;9.4907;65.6733
43414;DHT22;73638;49.676;8.606;2024-02-14T07:32:36;9.7124;65.594
43414;DHT22;73638;49.676;8.606;2024-02-14T07:37:41;9.7684;65.3971
43414;DHT22;73638;49.676;8.606;2024-02-14T07:42:48;9.9287;65.9251
43414;DHT22;73638;49.676;8.606;2024-02-14T07:47:55;10.0355;66.5278
43414;DHT22;73638;49.676;8.606;2024-02-14T07:53:02;10.1396;66.6621
43414;DHT22;73638;49.676;8.606;2024-02-14T07:58:08;10.2918;66.5278
43414;DHT22;73638;49.676;8.606;2024-02-14T08:03:15;10.3906;66.4286
43414;DHT22;73638;49.676;8.606;2024-02-14T08:08:22;10.4547;66.5644
43414;DHT22;73638;49.676;8.606;2024-02-14T08:13:29;10.6283;66.4164
43414;DHT22;73638;49.676;8.606;2024-02-14T08:18:36;10.6977;66.0487
43414;DHT22;73638;49.676;8.606;2024-02-14T08:23:42;10.8019;65.7893
43414;DHT22;73638;49.676;8.606;2024-02-14T08:28:49;10.8793;65.9129
43414;DHT22;73638;49.676;8.606;2024-02-14T08:33:56;11.0555;65.7816
43414;DHT22;73638;49.676;8.606;2024-02-14T08:39:03;11.0555;65.9663
43414;DHT22;73638;49.676;8.606;2024-02-14T08:44:09;11.0742;66.1372
43414;DHT22;73638;49.676;8.606;2024-02-14T08:49:16;11.0609;65.745
43414;DHT22;73638;49.676;8.606;2024-02-14T08:54:23;10.9648;66.0395
43414;DHT22;73638;49.676;8.606;2024-02-14T08:59:29;10.8232;66.6621
43414;DHT22;73638;49.676;8.606;2024-02-14T09:04:36;10.7538;66.8101
43414;DHT22;73638;49.676;8.606;2024-02-14T09:09:43;10.8793;67.0436
43414;DHT22;73638;49.676;8.606;2024-02-14T09:14:50;10.874;66.7735
43414;DHT22;73638;49.676;8.606;2024-02-14T09:19:56;11.0956;67.3167
43414;DHT22;73638;49.676;8.606;2024-02-14T09:25:04;11.384;67.8462
43414;DHT22;73638;49.676;8.606;2024-02-14T09:30:25;11.6403;67.6127
43414;DHT22;73638;49.676;8.606;2024-02-14T09:35:17;11.7739;67.9927
43414;DHT22;73638;49.676;8.606;2024-02-14T09:40:25;11.9982;67.9072
43414;DHT22;73638;49.676;8.606;2024-02-14T09:45:32;12.0542;67.7348
43414;DHT22;73638;49.676;8.606;2024-02-14T09:50:38;12.1637;67.8584
43414;DHT22;73638;49.676;8.606;2024-02-14T09:55:45;12.2705;67.4281
43414;DHT22;73638;49.676;8.606;2024-02-14T10:00:52;12.3747;67.2236
43414;DHT22;73638;49.676;8.606;2024-02-14T10:05:59;12.4094;66.978
43414;DHT22;73638;49.676;8.606;2024-02-14T10:11:07;12.4228;66.9535
43414;DHT22;73638;49.676;8.606;2024-02-14T10:16:13;12.5349;67.0771
43414;DHT22;73638;49.676;8.606;2024-02-14T10:21:19;12.7085;67.0024
43414;DHT22;73638;49.676;8.606;2024-02-14T10:26:26;12.7085;67.0649
43414;DHT22;73638;49.676;8.606;2024-02-14T10:31:33;12.8286;66.5614
43414;DHT22;73638;49.676;8.606;2024-02-14T10:36:42;12.7379;66.4378
43414;DHT22;73638;49.676;8.606;2024-02-14T10:41:47;12.5483;67.0771
43414;DHT22;73638;49.676;8.606;2024-02-14T10:46:55;12.3453;67.3228
43414;DHT22;73638;49.676;8.606;2024-02-14T10:52:05;12.1931;67.9438
43414;DHT22;73638;49.676;8.606;2024-02-14T10:57:08;12.2839;68.0797
43414;DHT22;73638;49.676;8.606;2024-02-14T11:02:15;12.4441;67.3106
43414;DHT22;73638;49.676;8.606;2024-02-14T11:07:21;12.3266;67.9622
43414;DHT22;73638;49.676;8.606;2024-02-14T11:12:32;12.3827;68.7846
43414;DHT22;73638;49.676;8.606;2024-02-14T11:17:35;12.5349;68.8838
43414;DHT22;73638;49.676;8.606;2024-02-14T11:22:50;12.6177;69.0913
43414;DHT22;73638;49.676;8.606;2024-02-14T11:27:49;12.7298;69.3248
43414;DHT22;73638;49.676;8.606;2024-02-14T11:33:23;12.85;69.1035
43414;DHT22;73638;49.676;8.606;2024-02-14T11:38:03;13.0797;68.6992
43414;DHT22;73638;49.676;8.606;2024-02-14T11:43:11;13.2906;68.6366
43414;DHT22;73638;49.676;8.606;2024-02-14T11:48:17;13.4428;68.5267
43414;DHT22;73638;49.676;8.606;2024-02-14T11:53:24;13.4989;68.6122
43414;DHT22;73638;49.676;8.606;2024-02-14T11:58:31;13.4562;68.2811
43414;DHT22;73638;49.676;8.606;2024-02-14T12:03:38;13.6725;67.805
43414;DHT22;73638;49.676;8.606;2024-02-14T12:08:45;13.7499;67.5593
43414;DHT22;73638;49.676;8.606;2024-02-14T12:13:52;13.9315;67.3884
43414;DHT22;73638;49.676;8.606;2024-02-14T12:19:03;14.1264;67.5349
43414;DHT22;73638;49.676;8.606;2024-02-14T12:24:07;14.3454;67.2892
43414;DHT22;73638;49.676;8.606;2024-02-14T12:29:13;14.2332;66.5156
43414;DHT22;73638;49.676;8.606;2024-02-14T12:34:27;14.1077;66.3676
43414;DHT22;73638;49.676;8.606;2024-02-14T12:39:26;14.0009;66.9215
43414;DHT22;73638;49.676;8.606;2024-02-14T12:44:33;13.8273;67.3259
43414;DHT22;73638;49.676;8.606;2024-02-14T12:49:40;13.7499;67.6585
43414;DHT22;73638;49.676;8.606;2024-02-14T12:54:48;13.6725;68.6778
43414;DHT22;73638;49.676;8.606;2024-02-14T12:59:54;13.611;69.1173
43414;DHT22;73638;49.676;8.606;2024-02-14T13:05:01;13.6538;69.1295
43414;DHT22;73638;49.676;8.606;2024-02-14T13:10:08;13.6591;69.3004
43414;DHT22;73638;49.676;8.606;2024-02-14T13:15:15;13.5763;69.3996
43414;DHT22;73638;49.676;8.606;2024-02-14T13:20:22;13.6725;69.0593
43414;DHT22;73638;49.676;8.606;2024-02-14T13:25:29;13.9261;69.0715
43414;DHT22;73638;49.676;8.606;2024-02-14T13:30:38;14.0517;69.5018
43414;DHT22;73638;49.676;8.606;2024-02-14T13:35:43;13.9662;69.5018
43414;DHT22;73638;49.676;8.606;2024-02-14T13:40:50;13.9528;69.5628
43414;DHT22;73638;49.676;8.606;2024-02-14T13:45:56;13.9181;69.6483
43414;DHT22;73638;49.676;8.606;2024-02-14T13:51:03;13.9662;69.9931
43414;DHT22;73638;49.676;8.606;2024-02-14T13:56:10;13.9662;70.2632
43414;DHT22;73638;49.676;8.606;2024-02-14T14:01:17;13.9528;70.5455
43414;DHT22;73638;49.676;8.606;2024-02-14T14:06:24;13.9448;70.8904
43414;DHT22;73638;49.676;8.606;2024-02-14T14:11:31;13.8407;70.2998
43414;DHT22;73638;49.676;8.606;2024-02-14T14:16:37;13.563;70.7881
43414;DHT22;73638;49.676;8.606;2024-02-14T14:21:44;13.4428;70.9712
43414;DHT22;73638;49.676;8.606;2024-02-14T14:26:50;13.2559;70.9224
43414;DHT22;73638;49.676;8.606;2024-02-14T14:31:57;13.2185;71.8807
43414;DHT22;73638;49.676;8.606;2024-02-14T14:37:04;13.2826;72.4224
43414;DHT22;73638;49.676;8.606;2024-02-14T14:42:11;13.2692;72.7901
43414;DHT22;73638;49.676;8.606;2024-02-14T14:47:18;13.352;73.2082
43414;DHT22;73638;49.676;8.606;2024-02-14T14:52:25;13.2826;73.6385
43414;DHT22;73638;49.676;8.606;2024-02-14T14:57:31;13.2826;73.6751
43414;DHT22;73638;49.676;8.606;2024-02-14T15:02:39;13.2265;73.0236
43414;DHT22;73638;49.676;8.606;2024-02-14T15:07:45;13.1224;73.8109
43414;DHT22;73638;49.676;8.606;2024-02-14T15:12:52;13.1224;74.6334
43414;DHT22;73638;49.676;8.606;2024-02-14T15:17:59;13.1144;75.2606
43414;DHT22;73638;49.676;8.606;2024-02-14T15:23:05;13.093;75.346
43414;DHT22;73638;49.676;8.606;2024-02-14T15:28:12;13.093;75.7946
43414;DHT22;73638;49.676;8.606;2024-02-14T15:33:20;13.1224;75.8404
43414;DHT22;73638;49.676;8.606;2024-02-14T15:38:26;13.1998;75.8953
43414;DHT22;73638;49.676;8.606;2024-02-14T15:43:33;13.1224;75.9777
43414;DHT22;73638;49.676;8.606;2024-02-14T15:48:40;13.1224;76.144
43414;DHT22;73638;49.676;8.606;2024-02-14T15:53:47;13.1571;75.8495
43414;DHT22;73638;49.676;8.606;2024-02-14T15:58:53;12.9061;75.7031
43414;DHT22;73638;49.676;8.606;2024-02-14T16:04:00;12.7859;75.6542
43414;DHT22;73638;49.676;8.606;2024-02-14T16:09:07;12.7859;76.1242
43414;DHT22;73638;49.676;8.606;2024-02-14T16:14:13;12.9194;76.2905
43414;DHT22;73638;49.676;8.606;2024-02-14T16:19:21;12.9408;76.5301
43414;DHT22;73638;49.676;8.606;2024-02-14T16:24:28;12.9622;76.7224
43414;DHT22;73638;49.676;8.606;2024-02-14T16:29:34;12.9755;76.5942
43414;DHT22;73638;49.676;8.606;2024-02-14T16:34:41;13.0449;76.6766
43414;DHT22;73638;49.676;8.606;2024-02-14T16:39:49;12.9114;76.759
43414;DHT22;73638;49.676;8.606;2024-02-14T16:44:55;12.9675;76.7956
43414;DHT22;73638;49.676;8.606;2024-02-14T16:50:02;12.9194;76.9711
43414;DHT22;73638;49.676;8.606;2024-02-14T16:55:08;12.9408;77.1817
43414;DHT22;73638;49.676;8.606;2024-02-14T17:00:16;12.9114;76.6308
43414;DHT22;73638;49.676;8.606;2024-02-14T17:05:23;12.6818;76.64
43414;DHT22;73638;49.676;8.606;2024-02-14T17:10:29;12.6177;76.704
43414;DHT22;73638;49.676;8.606;2024-02-14T17:15:36;12.6043;76.5759
43414;DHT22;73638;49.676;8.606;2024-02-14T17:20:43;12.5483;77.145
43414;DHT22;73638;49.676;8.606;2024-02-14T17:25:50;12.7031;77.2931
43414;DHT22;73638;49.676;8.606;2024-02-14T17:30:56;12.7379;77.615
43414;DHT22;73638;49.676;8.606;2024-02-14T17:36:04;12.7646;77.734
43414;DHT22;73638;49.676;8.606;2024-02-14T17:41:10;12.7459;77.8439
43414;DHT22;73638;49.676;8.606;2024-02-14T17:46:17;12.7993;77.8805
43414;DHT22;73638;49.676;8.606;2024-02-14T17:51:24;12.8153;77.9171
43414;DHT22;73638;49.676;8.606;2024-02-14T17:56:31;12.8073;78.0377
43414;DHT22;73638;49.676;8.606;2024-02-14T18:01:38;12.6604;77.5036
43414;DHT22;73638;49.676;8.606;2024-02-14T18:06:45;12.599;77.3846
43414;DHT22;73638;49.676;8.606;2024-02-14T18:11:51;12.583;77.6883
43414;DHT22;73638;49.676;8.606;2024-02-14T18:16:59;12.7298;77.6425
43414;DHT22;73638;49.676;8.606;2024-02-14T18:22:06;12.85;77.9446
43414;DHT22;73638;49.676;8.606;2024-02-14T18:27:13;12.9408;77.8622
43414;DHT22;73638;49.676;8.606;2024-02-14T18:32:19;12.9328;77.6516
43414;DHT22;73638;49.676;8.606;2024-02-14T18:37:27;12.9461;77.8622
43414;DHT22;73638;49.676;8.606;2024-02-14T18:42:33;12.8981;77.734
43414;DHT22;73638;49.676;8.606;2024-02-14T18:47:41;12.9889;77.7066
43414;DHT22;73638;49.676;8.606;2024-02-14T18:52:47;13.0022;77.6974
43414;DHT22;73638;49.676;8.606;2024-02-14T18:57:54;12.9114;77.2183
43414;DHT22;73638;49.676;8.606;2024-02-14T19:03:01;12.85;76.9711
43414;DHT22;73638;49.676;8.606;2024-02-14T19:08:10;12.7085;77.1084
43414;DHT22;73638;49.676;8.606;2024-02-14T19:13:15;12.85;77.615
43414;DHT22;73638;49.676;8.606;2024-02-14T19:18:22;12.8286;77.6333
43414;DHT22;73638;49.676;8.606;2024-02-14T19:23:28;12.9889;77.7066
43414;DHT22;73638;49.676;8.606;2024-02-14T19:28:35;13.0369;77.6974
43414;DHT22;73638;49.676;8.606;2024-02-14T19:33:42;13.109;77.7707
43414;DHT22;73638;49.676;8.606;2024-02-14T19:38:49;13.0369;77.7432
43414;DHT22;73638;49.676;8.606;2024-02-14T19:43:55;13.1144;77.5311
43414;DHT22;73638;49.676;8.606;2024-02-14T19:49:02;13.101;77.908
43414;DHT22;73638;49.676;8.606;2024-02-14T19:54:09;13.0182;77.586
43414;DHT22;73638;49.676;8.606;2024-02-14T19:59:15;12.9274;77.2183
43414;DHT22;73638;49.676;8.606;2024-02-14T20:04:22;12.7993;77.2747
43414;DHT22;73638;49.676;8.606;2024-02-14T20:09:29;12.842;77.6516
43414;DHT22;73638;49.676;8.606;2024-02-14T20:14:36;12.9675;77.9553
43414;DHT22;73638;49.676;8.606;2024-02-14T20:19:43;13.0102;77.9736
43414;DHT22;73638;49.676;8.606;2024-02-14T20:24:50;12.9755;78.0743
43414;DHT22;73638;49.676;8.606;2024-02-14T20:29:57;13.0449;78.1384
43414;DHT22;73638;49.676;8.606;2024-02-14T20:35:05;13.0797;78.1292
43414;DHT22;73638;49.676;8.606;2024-02-14T20:40:11;13.0369;78.3322
43414;DHT22;73638;49.676;8.606;2024-02-14T20:45:18;13.0316;78.1018
43414;DHT22;73638;49.676;8.606;2024-02-14T20:50:25;12.842;77.734
43414;DHT22;73638;49.676;8.606;2024-02-14T20:55:36;12.7592;77.7066
43414;DHT22;73638;49.676;8.606;2024-02-14T21:00:40;12.7939;77.9553
43414;DHT22;73638;49.676;8.606;2024-02-14T21:05:47;12.8206;78.2208
43414;DHT22;73638;49.676;8.606;2024-02-14T21:10:54;12.9194;78.4421
43414;DHT22;73638;49.676;8.606;2024-02-14T21:16:01;13.0369;78.4787
43414;DHT22;73638;49.676;8.606;2024-02-14T21:21:08;12.9969;78.5885
43414;DHT22;73638;49.676;8.606;2024-02-14T21:26:15;13.0102;78.6068
43414;DHT22;73638;49.676;8.606;2024-02-14T21:31:22;13.0102;78.6343
43414;DHT22;73638;49.676;8.606;2024-02-14T21:36:28;13.0663;78.764
43414;DHT22;73638;49.676;8.606;2024-02-14T21:41:35;13.0182;78.819
43414;DHT22;73638;49.676;8.606;2024-02-14T21:46:42;12.8847;78.3413
43414;DHT22;73638;49.676;8.606;2024-02-14T21:51:49;12.8367;78.0285
43414;DHT22;73638;49.676;8.606;2024-02-14T21:56:56;12.7726;78.2757
43414;DHT22;73638;49.676;8.606;2024-02-14T22:02:03;12.8847;78.4787
43414;DHT22;73638;49.676;8.606;2024-02-14T22:07:09;12.9114;78.6435
43414;DHT22;73638;49.676;8.606;2024-02-14T22:12:16;12.9622;78.8281
43414;DHT22;73638;49.676;8.606;2024-02-14T22:17:23;12.9675;78.7366
43414;DHT22;73638;49.676;8.606;2024-02-14T22:22:29;12.9889;78.7823
43414;DHT22;73638;49.676;8.606;2024-02-14T22:27:37;13.0102;78.9288
43414;DHT22;73638;49.676;8.606;2024-02-14T22:32:43;13.0583;78.8647
43414;DHT22;73638;49.676;8.606;2024-02-14T22:37:50;13.0182;78.8739
43414;DHT22;73638;49.676;8.606;2024-02-14T22:42:57;13.0102;78.6709
43414;DHT22;73638;49.676;8.606;2024-02-14T22:48:04;12.7939;78.2849
43414;DHT22;73638;49.676;8.606;2024-02-14T22:53:11;12.7085;78.1842
43414;DHT22;73638;49.676;8.606;2024-02-14T22:58:17;12.5696;78.1659
43414;DHT22;73638;49.676;8.606;2024-02-14T23:03:24;12.5643;78.2666
43414;DHT22;73638;49.676;8.606;2024-02-14T23:08:31;12.5563;78.4695
43414;DHT22;73638;49.676;8.606;2024-02-14T23:13:38;12.7031;78.9014
43414;DHT22;73638;49.676;8.606;2024-02-14T23:18:45;12.7512;78.8098
43414;DHT22;73638;49.676;8.606;2024-02-14T23:23:51;12.7993;79.1409
43414;DHT22;73638;49.676;8.606;2024-02-14T23:28:58;12.7646;79.0585
43414;DHT22;73638;49.676;8.606;2024-02-14T23:34:05;12.7859;79.3698
43414;DHT22;73638;49.676;8.606;2024-02-14T23:39:12;12.8553;79.1867
43414;DHT22;73638;49.676;8.606;2024-02-14T23:44:19;12.8073;79.3881
43414;DHT22;73638;49.676;8.606;2024-02-14T23:49:26;12.7806;79.2508
43414;DHT22;73638;49.676;8.606;2024-02-14T23:54:32;12.8286;79.0295
43414;DHT22;73638;49.676;8.606;2024-02-14T23:59:39;12.7031;78.8006
